Time;durP1;ratioP1;P1;durP2;ratioP2;P2;SDS_P1;SDS_P2;PMS_P1;PMS_P2;Temp;Humidity;BMP_temperature;BMP_pressure;BME280_temperature;BME280_humidity;BME280_pressure;Samples;Min_cycle;Max_cycle;Signal;HPM_P1;HPM_P2
2021/06/11 00:02:24;;;;;;;6.68;6.05;;;;;;;19.43;69.58;100792.31;5092219;28;20771;-73
2021/06/11 00:04:49;;;;;;;9.13;8.20;;;;;;;19.45;69.25;100786.72;5091403;28;20036;-73
2021/06/11 00:07:15;;;;;;;8.23;7.43;;;;;;;19.35;69.28;100795.16;5092842;28;20032;-73
2021/06/11 00:09:40;;;;;;;7.10;6.40;;;;;;;19.30;70.07;100787.72;5092552;28;20028;-73
2021/06/11 00:12:06;;;;;;;6.82;6.20;;;;;;;19.23;70.24;100786.06;5091996;28;20042;-73
2021/06/11 00:14:31;;;;;;;5.90;5.30;;;;;;;19.20;70.03;100789.97;5092408;28;20028;-73
2021/06/11 00:16:57;;;;;;;7.07;6.25;;;;;;;19.22;69.46;100795.16;5092154;28;20024;-73
2021/06/11 00:19:22;;;;;;;5.70;5.20;;;;;;;19.16;71.60;100790.56;5090866;28;20036;-73
2021/06/11 00:21:48;;;;;;;7.03;6.32;;;;;;;19.04;71.93;100793.00;5092115;28;20114;-73
2021/06/11 00:24:13;;;;;;;5.82;5.25;;;;;;;18.97;72.45;100798.34;5091867;28;20043;-73
2021/06/11 00:26:38;;;;;;;6.45;5.85;;;;;;;18.86;72.05;100794.41;5090807;28;20028;-73
2021/06/11 00:29:03;;;;;;;7.45;6.05;;;;;;;18.84;71.68;100795.63;5092526;28;20050;-73
2021/06/11 00:31:29;;;;;;;6.10;5.35;;;;;;;18.86;73.16;100790.91;5084103;28;20089;-73
2021/06/11 00:33:54;;;;;;;5.85;5.25;;;;;;;18.82;72.74;100800.34;5081210;28;20082;-73
2021/06/11 00:36:19;;;;;;;7.15;5.95;;;;;;;18.71;71.98;100799.06;5091818;28;20476;-73
2021/06/11 00:38:45;;;;;;;6.43;5.78;;;;;;;18.63;73.49;100791.97;5090695;28;20416;-73
2021/06/11 00:41:11;;;;;;;6.85;6.25;;;;;;;18.55;73.93;100804.72;5083502;28;20082;-73
2021/06/11 00:43:36;;;;;;;6.75;6.07;;;;;;;18.50;73.91;100799.16;5089622;28;20032;-73
2021/06/11 00:46:02;;;;;;;6.80;6.10;;;;;;;18.45;74.26;100800.56;5092028;28;20084;-73
2021/06/11 00:48:27;;;;;;;7.40;6.70;;;;;;;18.50;72.14;100797.28;5083119;28;20084;-73
2021/06/11 00:50:52;;;;;;;6.35;5.75;;;;;;;18.54;72.83;100792.34;5091320;28;20514;-73
2021/06/11 00:53:18;;;;;;;5.90;5.30;;;;;;;18.55;73.71;100789.47;5092143;28;20036;-73
2021/06/11 00:55:45;;;;;;;7.05;6.35;;;;;;;18.56;72.83;100792.97;5082612;28;20082;-73
2021/06/11 00:58:15;;;;;;;5.65;5.13;;;;;;;18.54;73.95;100789.66;5083111;28;20421;-73
2021/06/11 01:00:41;;;;;;;7.10;5.85;;;;;;;18.51;72.94;100787.38;5090380;28;20047;-73
2021/06/11 01:03:07;;;;;;;6.55;5.90;;;;;;;18.44;74.09;100782.81;5080199;28;20488;-73
2021/06/11 01:05:33;;;;;;;6.53;5.93;;;;;;;18.40;74.23;100786.94;5088089;28;20067;-73
2021/06/11 01:07:58;;;;;;;7.53;5.68;;;;;;;18.44;72.35;100785.50;5083040;28;20035;-73
2021/06/11 01:10:25;;;;;;;7.40;6.55;;;;;;;18.49;72.74;100792.94;5091007;28;20173;-73
2021/06/11 01:12:52;;;;;;;7.18;6.47;;;;;;;18.45;74.50;100783.66;5090137;28;20028;-72
2021/06/11 01:15:17;;;;;;;5.93;5.30;;;;;;;18.49;72.63;100792.94;5091259;28;20157;-73
2021/06/11 01:17:43;;;;;;;8.10;6.78;;;;;;;18.55;72.48;100794.00;5091178;28;20123;-73
2021/06/11 01:20:11;;;;;;;9.43;7.75;;;;;;;18.59;72.18;100788.06;5089323;28;20396;-73
2021/06/11 01:23:04;;;;;;;7.43;6.72;;;;;;;18.57;72.25;100789.28;5082675;28;20029;-73
2021/06/11 01:25:34;;;;;;;9.05;7.90;;;;;;;18.58;72.17;100791.75;5090982;28;20393;-73
2021/06/11 01:28:03;;;;;;;9.50;8.50;;;;;;;18.61;72.33;100782.50;5091343;28;20048;-73
2021/06/11 01:30:30;;;;;;;7.60;6.90;;;;;;;18.54;72.88;100787.00;5090175;28;20032;-73
2021/06/11 01:32:57;;;;;;;6.45;5.75;;;;;;;18.50;72.14;100791.09;5077274;28;20028;-73
2021/06/11 01:35:27;;;;;;;6.13;5.13;;;;;;;18.47;72.63;100792.31;5086456;28;20073;-73
2021/06/11 01:37:59;;;;;;;5.25;4.75;;;;;;;18.47;74.01;100792.31;5090930;28;20127;-73
2021/06/11 01:40:24;;;;;;;7.18;6.28;;;;;;;18.49;72.84;100782.22;5091068;28;20155;-73
2021/06/11 01:42:50;;;;;;;6.90;6.25;;;;;;;18.39;74.38;100781.75;5081937;28;20506;-73
2021/06/11 01:45:15;;;;;;;6.25;5.65;;;;;;;18.35;73.64;100791.19;5091354;28;20392;-73
2021/06/11 01:47:50;;;;;;;7.32;6.50;;;;;;;18.38;72.79;100788.97;5073728;28;20028;-73
2021/06/11 01:50:21;;;;;;;5.95;5.35;;;;;;;18.34;74.81;100784.22;5090036;28;20040;-73
2021/06/11 01:52:48;;;;;;;7.63;6.43;;;;;;;18.37;72.39;100792.66;5090693;28;20081;-73
2021/06/11 01:55:14;;;;;;;6.50;5.82;;;;;;;18.28;74.52;100779.63;5084323;28;20063;-73
2021/06/11 01:57:42;;;;;;;5.35;4.88;;;;;;;18.22;75.71;100784.75;5086908;28;20028;-73
2021/06/11 02:00:08;;;;;;;5.95;5.22;;;;;;;18.19;75.70;100787.81;5085320;28;20047;-73
2021/06/11 02:02:36;;;;;;;6.53;5.90;;;;;;;18.09;74.62;100787.34;5085899;28;20028;-73
2021/06/11 02:05:07;;;;;;;6.18;5.57;;;;;;;18.00;75.27;100783.97;5090948;28;20025;-73
2021/06/11 02:07:34;;;;;;;6.53;5.93;;;;;;;17.91;75.04;100777.09;5091039;28;20604;-73
2021/06/11 02:10:00;;;;;;;5.90;5.32;;;;;;;17.85;75.12;100777.06;5091043;28;20080;-73
2021/06/11 02:12:25;;;;;;;6.70;6.00;;;;;;;17.77;75.81;100778.00;5089157;28;20024;-73
2021/06/11 02:14:51;;;;;;;5.60;5.10;;;;;;;17.73;74.90;100776.72;5078294;28;20044;-72
2021/06/11 02:17:17;;;;;;;6.30;5.70;;;;;;;17.72;77.18;100772.41;5084188;28;20105;-72
2021/06/11 02:19:44;;;;;;;6.60;5.60;;;;;;;17.70;76.95;100777.94;5087175;28;20074;-72
2021/06/11 02:22:10;;;;;;;6.60;5.90;;;;;;;17.63;75.87;100783.22;5088482;28;20032;-73
2021/06/11 02:24:38;;;;;;;6.13;5.53;;;;;;;17.57;75.65;100770.63;5090159;28;20369;-72
2021/06/11 02:27:06;;;;;;;6.22;5.63;;;;;;;17.49;75.49;100773.41;5090264;28;20496;-73
2021/06/11 02:29:33;;;;;;;6.15;5.55;;;;;;;17.44;75.84;100770.47;5089940;28;20569;-73
2021/06/11 02:31:59;;;;;;;6.15;5.55;;;;;;;17.39;75.58;100772.91;5084728;28;20070;-72
2021/06/11 02:34:24;;;;;;;6.45;5.85;;;;;;;17.36;77.07;100775.97;5076380;28;20276;-73
2021/06/11 02:36:49;;;;;;;7.20;6.50;;;;;;;17.31;76.08;100781.88;5089903;28;20556;-72
2021/06/11 02:39:15;;;;;;;6.85;6.15;;;;;;;17.27;76.23;100774.44;5081738;28;20107;-72
2021/06/11 02:41:44;;;;;;;5.53;4.93;;;;;;;17.31;75.33;100776.53;5088528;28;20043;-73
2021/06/11 02:44:11;;;;;;;6.18;5.57;;;;;;;17.34;77.01;100776.16;5087693;28;20559;-73
2021/06/11 02:47:10;;;;;;;5.97;5.38;;;;;;;17.38;77.13;100776.59;5088854;28;20039;-73
2021/06/11 02:49:42;;;;;;;6.75;6.15;;;;;;;17.35;75.45;100782.31;5056743;28;20040;-73
2021/06/11 02:52:08;;;;;;;6.32;5.72;;;;;;;17.29;75.42;100780.41;5069196;28;20389;-73
2021/06/11 02:54:44;;;;;;;4.93;4.45;;;;;;;17.28;78.16;100776.06;5071613;28;20035;-72
2021/06/11 02:57:47;;;;;;;5.30;4.80;;;;;;;17.35;76.50;100774.28;5082724;28;20043;-72
2021/06/11 03:00:13;;;;;;;6.55;5.18;;;;;;;17.37;76.62;100770.41;5088989;28;20608;-73
2021/06/11 03:02:48;;;;;;;6.10;5.50;;;;;;;17.35;77.04;100779.66;5072772;28;20029;-72
2021/06/11 03:05:16;;;;;;;7.65;6.95;;;;;;;17.19;78.35;100776.19;5089826;28;20097;-73
2021/06/11 03:07:45;;;;;;;7.85;7.07;;;;;;;17.08;78.62;100782.03;5089652;28;20020;-73
2021/06/11 03:10:11;;;;;;;7.95;7.13;;;;;;;16.98;78.72;100782.34;5084620;28;20036;-73
2021/06/11 03:12:38;;;;;;;7.75;6.85;;;;;;;16.92;79.08;100790.25;5090877;28;20030;-72
2021/06/11 03:15:05;;;;;;;9.00;6.90;;;;;;;16.88;79.69;100787.16;5089732;28;20043;-73
2021/06/11 03:17:33;;;;;;;7.40;6.70;;;;;;;16.87;79.95;100784.66;5089256;28;20033;-73
2021/06/11 03:20:06;;;;;;;8.15;7.30;;;;;;;16.84;79.22;100787.72;5087514;28;20515;-72
2021/06/11 03:22:42;;;;;;;8.05;6.78;;;;;;;16.82;79.77;100784.38;5089399;28;20475;-72
2021/06/11 03:25:13;;;;;;;7.75;6.65;;;;;;;16.80;80.81;100791.75;5089693;28;20036;-73
2021/06/11 03:27:51;;;;;;;8.32;7.50;;;;;;;16.75;80.79;100790.44;5088824;28;20397;-73
2021/06/11 03:30:20;;;;;;;8.48;7.57;;;;;;;16.76;81.20;100785.94;5080757;28;20042;-72
2021/06/11 03:32:59;;;;;;;7.80;7.00;;;;;;;16.75;81.18;100798.44;5085074;28;20036;-73
2021/06/11 03:35:32;;;;;;;8.13;6.90;;;;;;;16.75;80.17;100792.28;5084761;28;20036;-73
2021/06/11 03:38:01;;;;;;;7.45;6.75;;;;;;;16.71;80.05;100791.84;5089194;28;20040;-73
2021/06/11 03:40:31;;;;;;;8.48;7.68;;;;;;;16.69;79.76;100798.38;5088585;28;20055;-72
2021/06/11 03:42:58;;;;;;;8.25;7.45;;;;;;;16.63;80.41;100799.94;5086508;28;20115;-72
2021/06/11 03:45:25;;;;;;;8.50;7.63;;;;;;;16.59;80.37;100798.66;5089106;28;20032;-73
2021/06/11 03:47:52;;;;;;;7.72;6.93;;;;;;;16.58;81.03;100797.00;5080158;28;20056;-72
2021/06/11 03:50:23;;;;;;;7.95;7.15;;;;;;;16.57;80.58;100800.69;5079930;28;20085;-73
2021/06/11 03:52:50;;;;;;;7.90;7.10;;;;;;;16.59;80.44;100796.00;5086498;28;20497;-73
2021/06/11 03:55:20;;;;;;;7.85;7.05;;;;;;;16.59;80.91;100797.81;5085842;28;20041;-73
2021/06/11 03:57:50;;;;;;;7.40;6.70;;;;;;;16.61;80.46;100806.47;5090928;28;20036;-73
2021/06/11 04:00:17;;;;;;;9.07;7.65;;;;;;;16.61;80.23;100801.94;5090957;28;20559;-73
2021/06/11 04:02:42;;;;;;;8.45;7.30;;;;;;;16.61;80.80;100809.97;5085072;28;20051;-72
2021/06/11 04:05:08;;;;;;;7.15;6.45;;;;;;;16.62;80.35;100811.63;5092823;28;20056;-73
2021/06/11 04:07:40;;;;;;;7.05;6.35;;;;;;;16.68;80.42;100808.22;5092336;28;20024;-73
2021/06/11 04:10:14;;;;;;;7.18;6.47;;;;;;;16.74;79.77;100807.47;5085669;28;20401;-73
2021/06/11 04:12:48;;;;;;;7.03;6.32;;;;;;;16.72;80.67;100812.19;5081983;28;20028;-73
2021/06/11 04:15:14;;;;;;;7.30;6.60;;;;;;;16.69;80.19;100807.22;5091551;28;20189;-73
2021/06/11 04:17:46;;;;;;;8.00;6.75;;;;;;;16.68;80.63;100812.72;5092155;28;20040;-73
2021/06/11 04:20:19;;;;;;;7.43;6.55;;;;;;;16.72;80.89;100814.03;5088964;28;20443;-72
2021/06/11 04:22:47;;;;;;;7.03;6.38;;;;;;;16.77;80.16;100822.31;5082302;28;20401;-72
2021/06/11 04:25:15;;;;;;;8.45;6.93;;;;;;;16.83;81.13;100816.28;5086057;28;20036;-73
2021/06/11 04:27:42;;;;;;;7.00;6.30;;;;;;;16.89;79.63;100812.84;5082997;28;20030;-73
2021/06/11 04:30:09;;;;;;;6.63;5.93;;;;;;;16.96;79.15;100812.91;5084879;28;20036;-73
2021/06/11 04:32:34;;;;;;;9.00;7.88;;;;;;;17.11;78.55;100819.09;5089518;28;20029;-72
2021/06/11 04:35:00;;;;;;;8.10;7.30;;;;;;;17.17;79.00;100818.31;5084216;28;20032;-73
2021/06/11 04:37:25;;;;;;;8.10;6.60;;;;;;;17.24;78.19;100806.88;5090441;28;20426;-72
2021/06/11 04:39:51;;;;;;;10.93;8.43;;;;;;;17.37;77.82;100810.50;5091883;28;20038;-73
2021/06/11 04:42:16;;;;;;;8.73;7.82;;;;;;;17.39;77.75;100808.47;5089954;28;20035;-73
2021/06/11 04:44:41;;;;;;;9.45;8.23;;;;;;;17.41;78.21;100810.97;5090162;28;20045;-73
2021/06/11 04:47:08;;;;;;;9.02;7.40;;;;;;;17.45;79.21;100817.59;5085870;28;20040;-73
2021/06/11 04:49:33;;;;;;;6.18;5.57;;;;;;;17.51;78.16;100818.69;5071505;28;20490;-72
2021/06/11 04:51:58;;;;;;;6.80;5.85;;;;;;;17.51;77.67;100818.69;5064890;28;20039;-73
2021/06/11 04:54:24;;;;;;;7.90;6.85;;;;;;;17.59;77.47;100822.06;5086939;28;20043;-73
2021/06/11 04:56:49;;;;;;;6.60;6.00;;;;;;;17.61;77.32;100828.06;5082281;28;20251;-72
2021/06/11 04:59:15;;;;;;;7.45;6.65;;;;;;;17.64;77.45;100829.53;5091439;28;20036;-72
2021/06/11 05:01:40;;;;;;;8.05;6.78;;;;;;;17.64;78.07;100826.84;5090786;28;20069;-73
2021/06/11 05:04:06;;;;;;;7.18;6.47;;;;;;;17.67;77.37;100822.97;5090815;28;20077;-73
2021/06/11 05:06:31;;;;;;;7.40;6.70;;;;;;;17.67;77.45;100818.44;5090407;28;20035;-73
2021/06/11 05:08:56;;;;;;;7.63;6.85;;;;;;;17.72;77.79;100820.53;5091639;28;20036;-73
2021/06/11 05:11:22;;;;;;;7.78;6.90;;;;;;;17.77;77.57;100816.25;5091003;28;20043;-73
2021/06/11 05:13:48;;;;;;;6.95;6.25;;;;;;;17.86;77.27;100819.66;5090763;28;20024;-73
2021/06/11 05:16:13;;;;;;;8.25;7.45;;;;;;;18.04;76.66;100813.84;5082563;28;20032;-73
2021/06/11 05:18:39;;;;;;;8.95;8.05;;;;;;;18.19;76.23;100816.44;5080500;28;20170;-73
2021/06/11 05:21:04;;;;;;;7.55;6.75;;;;;;;18.28;76.41;100817.09;5089258;28;20032;-73
2021/06/11 05:23:30;;;;;;;8.85;7.30;;;;;;;18.42;75.86;100810.81;5091152;28;20031;-73
2021/06/11 05:25:55;;;;;;;8.68;7.78;;;;;;;18.55;75.52;100829.66;5090403;28;20036;-72
2021/06/11 05:28:22;;;;;;;7.80;7.00;;;;;;;18.62;75.92;100818.97;5089148;28;20035;-73
2021/06/11 05:30:49;;;;;;;9.00;8.10;;;;;;;18.57;75.77;100824.94;5082426;28;20050;-73
2021/06/11 05:33:14;;;;;;;7.93;6.93;;;;;;;18.66;75.76;100836.28;5082935;28;20068;-73
2021/06/11 05:35:40;;;;;;;9.23;8.23;;;;;;;18.86;75.24;100826.56;5087112;28;20059;-73
2021/06/11 05:38:05;;;;;;;10.70;9.60;;;;;;;18.98;74.96;100826.00;5090436;28;20405;-73
2021/06/11 05:40:35;;;;;;;8.70;7.90;;;;;;;19.12;74.82;100827.69;5081286;28;20024;-73
2021/06/11 05:43:01;;;;;;;9.82;8.82;;;;;;;19.29;74.82;100820.94;5079922;28;20036;-73
2021/06/11 05:45:27;;;;;;;11.45;9.60;;;;;;;19.39;74.23;100823.22;5083502;28;20256;-73
2021/06/11 05:47:53;;;;;;;11.23;9.75;;;;;;;19.62;73.62;100827.41;5081562;28;20054;-73
2021/06/11 05:50:18;;;;;;;12.00;10.70;;;;;;;19.97;72.87;100822.72;5086935;28;20036;-73
2021/06/11 05:52:44;;;;;;;9.77;8.63;;;;;;;20.18;72.35;100821.69;5088857;28;20219;-73
2021/06/11 05:55:10;;;;;;;9.10;8.00;;;;;;;20.49;72.46;100823.69;5085154;28;20032;-73
2021/06/11 05:57:35;;;;;;;8.18;7.38;;;;;;;20.84;71.49;100831.50;5087172;28;20025;-73
2021/06/11 06:00:01;;;;;;;11.45;10.25;;;;;;;21.24;71.23;100825.09;5090480;28;20063;-73
2021/06/11 06:02:27;;;;;;;10.80;9.70;;;;;;;21.58;68.65;100826.63;5090206;28;20393;-73
2021/06/11 06:04:52;;;;;;;7.78;7.03;;;;;;;21.90;67.57;100829.28;5090760;28;20046;-73
2021/06/11 06:07:17;;;;;;;9.38;8.13;;;;;;;22.21;67.03;100826.53;5090629;28;20032;-73
2021/06/11 06:09:43;;;;;;;9.80;8.80;;;;;;;22.40;67.78;100824.69;5090748;28;20488;-73
2021/06/11 06:12:10;;;;;;;7.68;6.93;;;;;;;22.71;67.10;100830.19;5084945;28;20452;-73
2021/06/11 06:14:35;;;;;;;9.00;7.78;;;;;;;22.83;64.51;100831.09;5087229;28;20070;-73
2021/06/11 06:17:00;;;;;;;7.93;7.05;;;;;;;23.00;64.80;100829.47;5090194;28;20570;-73
2021/06/11 06:19:26;;;;;;;7.63;6.88;;;;;;;23.38;64.00;100839.13;5088787;28;20640;-73
2021/06/11 06:21:51;;;;;;;10.20;8.15;;;;;;;23.38;63.05;100841.81;5089741;28;20485;-73
2021/06/11 06:24:17;;;;;;;8.15;6.65;;;;;;;23.71;63.51;100843.22;5089591;28;20281;-73
2021/06/11 06:26:43;;;;;;;8.85;7.95;;;;;;;23.97;60.35;100844.72;5090536;28;20024;-73
2021/06/11 06:29:08;;;;;;;8.60;7.70;;;;;;;23.86;59.73;100838.25;5089953;28;20047;-73
2021/06/11 06:31:34;;;;;;;8.63;7.70;;;;;;;24.12;61.64;100841.56;5089837;28;20036;-73
2021/06/11 06:33:59;;;;;;;8.95;7.35;;;;;;;24.51;60.20;100845.47;5079513;28;20075;-73
2021/06/11 06:36:24;;;;;;;9.38;7.43;;;;;;;24.95;58.74;100840.44;5089628;28;20056;-73
2021/06/11 06:38:51;;;;;;;10.40;9.30;;;;;;;25.14;57.10;100846.50;5090115;28;20063;-73
2021/06/11 06:41:17;;;;;;;10.13;8.82;;;;;;;25.10;57.36;100839.09;5089944;28;20028;-73
2021/06/11 06:43:43;;;;;;;11.10;7.90;;;;;;;25.30;57.68;100846.84;5085980;28;20103;-73
2021/06/11 06:46:08;;;;;;;8.77;6.85;;;;;;;25.59;58.50;100845.75;5088013;28;20028;-74
2021/06/11 06:48:35;;;;;;;10.80;8.50;;;;;;;25.74;54.17;100844.38;5080619;28;20438;-73
2021/06/11 06:51:00;;;;;;;8.63;7.63;;;;;;;25.91;54.60;100847.97;5080225;28;20173;-73
2021/06/11 06:53:26;;;;;;;10.10;8.80;;;;;;;25.73;55.41;100845.44;5090032;28;20062;-73
2021/06/11 06:55:51;;;;;;;10.35;8.05;;;;;;;25.96;53.20;100842.63;5081161;28;20044;-73
2021/06/11 06:58:16;;;;;;;12.13;8.52;;;;;;;26.26;51.65;100841.44;5089263;28;20032;-73
2021/06/11 07:00:42;;;;;;;12.35;9.65;;;;;;;26.46;52.90;100843.63;5089532;28;20031;-73
2021/06/11 07:03:07;;;;;;;7.25;6.55;;;;;;;26.62;50.78;100841.97;5089904;28;20032;-73
2021/06/11 07:05:32;;;;;;;9.63;7.22;;;;;;;26.88;52.99;100841.22;5081054;28;20031;-73
2021/06/11 07:07:58;;;;;;;8.82;7.75;;;;;;;27.22;49.88;100835.69;5088437;28;20031;-73
2021/06/11 07:10:23;;;;;;;8.15;7.07;;;;;;;27.22;51.11;100838.41;5089161;28;20036;-73
2021/06/11 07:12:49;;;;;;;11.05;8.80;;;;;;;27.63;50.55;100838.81;5081451;28;20036;-73
2021/06/11 07:15:15;;;;;;;9.45;7.63;;;;;;;27.49;48.25;100843.81;5085029;28;20088;-74
2021/06/11 07:17:41;;;;;;;7.45;6.55;;;;;;;27.71;50.13;100841.03;5088256;28;20040;-74
2021/06/11 07:20:09;;;;;;;13.07;8.20;;;;;;;28.07;48.80;100840.53;5082986;28;20039;-74
2021/06/11 07:22:35;;;;;;;10.07;7.20;;;;;;;28.26;49.37;100833.59;5086307;28;20119;-73
2021/06/11 07:25:02;;;;;;;8.27;6.60;;;;;;;28.18;49.94;100839.53;5089706;28;20115;-74
2021/06/11 07:27:32;;;;;;;13.30;9.93;;;;;;;28.50;45.29;100831.31;5089617;28;20104;-73
2021/06/11 07:30:02;;;;;;;9.00;7.40;;;;;;;28.24;47.97;100834.94;5076519;28;20119;-73
2021/06/11 07:32:28;;;;;;;8.07;6.65;;;;;;;28.44;46.29;100839.69;5091819;28;20042;-74
2021/06/11 07:34:53;;;;;;;10.07;8.63;;;;;;;28.51;42.47;100834.88;5081690;28;20029;-75
2021/06/11 07:37:19;;;;;;;12.20;8.85;;;;;;;28.55;45.28;100841.41;5087973;28;20032;-74
2021/06/11 07:39:44;;;;;;;7.22;6.47;;;;;;;28.70;44.97;100837.94;5093081;28;20077;-74
2021/06/11 07:42:11;;;;;;;8.88;7.78;;;;;;;28.97;43.30;100841.31;5092410;28;20438;-74
2021/06/11 07:44:37;;;;;;;6.55;5.28;;;;;;;28.83;45.14;100840.19;5091541;28;20028;-74
2021/06/11 07:47:03;;;;;;;6.57;5.18;;;;;;;28.93;43.34;100836.69;5088607;28;20039;-74
2021/06/11 07:49:28;;;;;;;9.65;6.70;;;;;;;29.50;42.84;100837.66;5088986;28;20032;-74
2021/06/11 07:51:54;;;;;;;6.28;5.68;;;;;;;29.64;42.41;100836.03;5089712;28;20132;-74
2021/06/11 07:54:19;;;;;;;6.47;5.88;;;;;;;29.22;41.65;100831.63;5087291;28;20059;-74
2021/06/11 07:56:44;;;;;;;6.18;4.85;;;;;;;29.39;41.34;100834.09;5083738;28;20032;-74
2021/06/11 07:59:09;;;;;;;6.60;5.90;;;;;;;29.51;42.64;100831.13;5092641;28;20040;-74
2021/06/11 08:01:35;;;;;;;6.00;5.15;;;;;;;29.55;40.38;100838.47;5092483;28;20060;-74
2021/06/11 08:04:01;;;;;;;8.57;5.50;;;;;;;29.63;42.27;100835.22;5092774;28;20032;-74
2021/06/11 08:06:26;;;;;;;7.93;5.90;;;;;;;29.69;41.59;100838.78;5092263;28;20039;-74
2021/06/11 08:08:52;;;;;;;6.75;5.53;;;;;;;30.02;39.44;100831.97;5092908;28;20037;-74
2021/06/11 08:11:17;;;;;;;6.18;5.28;;;;;;;29.80;38.52;100826.81;5093357;28;20028;-74
2021/06/11 08:13:42;;;;;;;5.65;5.03;;;;;;;29.97;39.94;100828.44;5084445;28;20524;-74
2021/06/11 08:16:08;;;;;;;4.70;4.28;;;;;;;30.31;39.02;100831.41;5090473;28;20084;-74
2021/06/11 08:18:33;;;;;;;6.18;4.93;;;;;;;30.89;38.53;100833.69;5090654;28;20028;-74
2021/06/11 08:20:58;;;;;;;5.55;4.97;;;;;;;30.51;37.88;100835.16;5092334;28;20036;-73
2021/06/11 08:23:24;;;;;;;5.50;4.10;;;;;;;30.64;39.51;100835.41;5091471;28;20074;-74
2021/06/11 08:25:49;;;;;;;5.43;3.60;;;;;;;31.45;39.01;100832.56;5092279;28;20040;-74
2021/06/11 08:28:15;;;;;;;5.00;4.22;;;;;;;31.80;36.81;100830.66;5084847;28;20115;-74
2021/06/11 08:30:41;;;;;;;4.88;4.30;;;;;;;32.04;37.25;100830.75;5089965;28;20040;-74
2021/06/11 08:33:07;;;;;;;5.13;4.57;;;;;;;32.36;33.90;100827.41;5085544;28;20132;-74
2021/06/11 08:35:33;;;;;;;5.85;5.30;;;;;;;32.13;34.14;100820.78;5088873;28;20036;-74
2021/06/11 08:37:58;;;;;;;4.32;3.90;;;;;;;32.08;35.62;100826.31;5075902;28;20032;-74
2021/06/11 08:40:25;;;;;;;4.95;4.22;;;;;;;32.12;35.01;100830.13;5088991;28;20027;-74
2021/06/11 08:42:50;;;;;;;6.70;5.97;;;;;;;32.37;31.77;100829.03;5089504;28;20060;-74
2021/06/11 08:45:17;;;;;;;5.18;4.57;;;;;;;32.31;33.86;100828.25;5092519;28;20070;-75
2021/06/11 08:47:49;;;;;;;6.60;5.43;;;;;;;31.75;33.77;100828.81;5075510;28;20068;-74
2021/06/11 08:50:20;;;;;;;4.95;3.72;;;;;;;31.91;35.90;100827.53;5085497;28;20028;-74
2021/06/11 08:52:46;;;;;;;9.23;5.40;;;;;;;32.52;34.50;100828.88;5090105;28;20489;-74
2021/06/11 08:55:12;;;;;;;5.40;4.80;;;;;;;32.56;34.23;100827.19;5085854;28;20082;-74
2021/06/11 08:57:37;;;;;;;9.18;6.90;;;;;;;32.71;33.84;100828.94;5072297;28;20025;-74
2021/06/11 09:00:06;;;;;;;7.13;6.03;;;;;;;32.90;34.33;100828.16;5091528;28;20210;-75
2021/06/11 09:02:31;;;;;;;7.47;5.57;;;;;;;32.59;32.81;100823.06;5092146;28;20116;-75
2021/06/11 09:04:57;;;;;;;8.55;6.25;;;;;;;33.14;32.84;100823.44;5092540;28;20369;-75
2021/06/11 09:07:33;;;;;;;8.80;6.78;;;;;;;32.88;33.53;100827.63;5085146;28;20550;-76
2021/06/11 09:10:06;;;;;;;5.60;4.88;;;;;;;32.69;33.73;100825.66;5083501;28;20039;-74
2021/06/11 09:12:41;;;;;;;7.57;5.32;;;;;;;32.39;35.54;100832.28;5091204;28;20556;-74
2021/06/11 09:15:10;;;;;;;6.85;5.70;;;;;;;32.04;34.83;100828.03;5087236;28;20033;-74
2021/06/11 09:17:38;;;;;;;9.70;6.25;;;;;;;31.20;37.92;100825.31;5088565;28;20066;-75
2021/06/11 09:20:04;;;;;;;6.68;5.30;;;;;;;31.45;36.24;100824.38;5089239;28;20466;-75
2021/06/11 09:22:57;;;;;;;7.05;6.07;;;;;;;31.28;36.20;100825.56;5091287;28;20297;-75
2021/06/11 09:25:29;;;;;;;7.38;6.60;;;;;;;31.71;34.59;100827.72;5091164;28;20119;-75
2021/06/11 09:28:06;;;;;;;10.52;7.80;;;;;;;31.19;35.46;100815.50;5088722;28;20029;-75
2021/06/11 09:30:36;;;;;;;7.47;5.03;;;;;;;30.58;36.89;100814.69;5087198;28;20056;-74
2021/06/11 09:33:04;;;;;;;6.60;5.70;;;;;;;30.78;38.41;100816.50;5085073;28;20097;-75
2021/06/11 09:35:34;;;;;;;6.10;5.30;;;;;;;30.88;38.61;100823.88;5071021;28;20270;-74
2021/06/11 09:38:27;;;;;;;8.02;6.30;;;;;;;30.90;36.81;100824.41;5083641;28;20059;-74
2021/06/11 09:40:58;;;;;;;8.80;6.35;;;;;;;30.82;37.73;100819.47;5088619;28;20040;-74
2021/06/11 09:43:28;;;;;;;8.25;6.80;;;;;;;31.03;37.86;100825.69;5088507;28;20039;-74
2021/06/11 09:45:59;;;;;;;7.78;6.28;;;;;;;30.87;38.80;100824.97;5090923;28;20054;-75
2021/06/11 09:48:27;;;;;;;9.82;5.65;;;;;;;31.04;37.71;100828.16;5081945;28;20465;-75
2021/06/11 09:50:53;;;;;;;10.20;7.72;;;;;;;30.91;37.66;100817.84;5090761;28;20105;-75
2021/06/11 09:53:23;;;;;;;9.13;7.72;;;;;;;31.15;37.14;100822.63;5091921;28;20488;-76
2021/06/11 09:55:51;;;;;;;6.68;5.05;;;;;;;31.08;37.27;100817.47;5074518;28;20086;-76
2021/06/11 09:58:20;;;;;;;7.03;4.68;;;;;;;31.00;37.31;100818.06;5075937;28;20037;-76
2021/06/11 10:00:53;;;;;;;6.30;5.68;;;;;;;31.20;36.04;100822.59;5089201;28;20031;-75
2021/06/11 10:03:26;;;;;;;7.10;6.10;;;;;;;30.84;36.69;100822.78;5083076;28;20036;-76
2021/06/11 10:05:54;;;;;;;10.32;7.93;;;;;;;30.98;36.07;100821.06;5088365;28;20035;-77
2021/06/11 10:08:21;;;;;;;6.65;5.95;;;;;;;30.67;36.62;100812.19;5078428;28;20485;-76
2021/06/11 10:10:48;;;;;;;10.63;9.02;;;;;;;30.78;35.79;100808.31;5089230;28;20085;-75
2021/06/11 10:13:15;;;;;;;10.63;8.93;;;;;;;30.68;35.95;100811.91;5085017;28;20094;-75
2021/06/11 10:15:42;;;;;;;9.95;8.15;;;;;;;30.65;36.20;100814.38;5069102;28;20116;-75
2021/06/11 10:18:09;;;;;;;8.88;6.97;;;;;;;30.38;36.32;100815.56;5070350;28;20052;-76
2021/06/11 10:20:35;;;;;;;7.32;6.00;;;;;;;30.42;37.07;100813.91;5066017;28;20036;-75
2021/06/11 10:23:03;;;;;;;9.65;7.60;;;;;;;30.47;37.79;100811.16;5062294;28;20033;-75
2021/06/11 10:25:28;;;;;;;9.05;7.80;;;;;;;30.37;35.45;100805.75;5069809;28;20036;-75
2021/06/11 10:27:55;;;;;;;10.05;6.30;;;;;;;30.30;34.86;100804.41;5058833;28;20573;-75
2021/06/11 10:30:26;;;;;;;7.32;6.03;;;;;;;30.35;35.76;100798.94;5064447;28;20032;-75
2021/06/11 10:33:07;;;;;;;10.65;7.35;;;;;;;30.33;35.47;100801.94;5031667;28;20047;-75
2021/06/11 10:35:48;;;;;;;6.95;6.25;;;;;;;30.13;36.40;100793.75;5050158;28;20119;-76
2021/06/11 10:38:35;;;;;;;10.45;7.53;;;;;;;30.39;36.58;100805.47;5051793;28;20029;-75
2021/06/11 10:41:05;;;;;;;8.35;6.55;;;;;;;30.41;35.44;100795.91;5037916;28;20098;-75
2021/06/11 10:43:33;;;;;;;6.38;5.25;;;;;;;30.40;35.61;100799.72;5067827;28;20044;-75
2021/06/11 10:45:59;;;;;;;6.57;5.78;;;;;;;30.38;35.70;100795.66;5059586;28;20447;-75
2021/06/11 10:48:25;;;;;;;8.57;7.68;;;;;;;30.46;35.37;100795.06;5060686;28;20102;-75
2021/06/11 10:50:51;;;;;;;9.15;7.50;;;;;;;30.60;35.08;100793.38;5061221;28;20396;-75
2021/06/11 10:53:28;;;;;;;9.65;7.97;;;;;;;30.67;34.94;100796.63;5061999;28;20031;-76
2021/06/11 10:56:06;;;;;;;9.73;8.00;;;;;;;30.54;35.50;100791.78;5058101;28;20178;-76
2021/06/11 10:58:33;;;;;;;8.15;7.30;;;;;;;30.50;35.05;100784.44;5064964;28;20446;-75
2021/06/11 11:01:19;;;;;;;8.88;7.03;;;;;;;30.19;36.67;100779.84;5070223;28;20507;-75
2021/06/11 11:03:44;;;;;;;6.45;5.80;;;;;;;30.43;38.55;100779.25;5078768;28;20028;-76
2021/06/11 11:06:31;;;;;;;9.38;8.00;;;;;;;30.57;37.49;100769.38;5084465;28;20036;-76
2021/06/11 11:08:59;;;;;;;6.85;5.90;;;;;;;30.40;35.92;100761.53;5089451;28;20081;-75
2021/06/11 11:11:26;;;;;;;8.38;7.53;;;;;;;30.34;34.82;100775.47;5082421;28;20105;-75
2021/06/11 11:13:52;;;;;;;7.93;7.13;;;;;;;30.44;34.73;100772.72;5080578;28;20584;-76
2021/06/11 11:16:25;;;;;;;8.60;7.32;;;;;;;30.51;35.17;100767.78;5079668;28;20111;-75
2021/06/11 11:18:51;;;;;;;7.95;7.10;;;;;;;30.47;34.59;100767.50;5087619;28;20033;-75
2021/06/11 11:21:40;;;;;;;11.32;8.63;;;;;;;30.63;35.08;100761.97;5081495;28;20032;-76
2021/06/11 11:24:12;;;;;;;10.25;7.95;;;;;;;30.45;35.65;100769.69;5070362;28;20044;-77
2021/06/11 11:26:48;;;;;;;7.95;6.55;;;;;;;30.47;36.51;100761.25;5070668;28;20025;-76
2021/06/11 11:29:16;;;;;;;9.15;7.25;;;;;;;30.60;35.83;100757.88;5084248;28;20039;-75